الصفحة الرئيسية
METAR-TAF:

METAR-TAF

مطار :

سكاكا, السعودية

مطار الجوف المحلي

دائرة عرض: 29-47N, خط طول: 040-06E, ارتفاع: 689 متر

مراقبة الطقس الحالي

تاريخ ووقت الإصدار 35 دقيقة قبل الساعة 03:00UTC
ريح 3 عقدة من الشمال
درجة الحرارة 6°درجة مئوية
الرطوبة 26%
ضغط 1024 hPa
الرؤية 10 كم أو أكثر
الغيوم لا تقل 1500 م ولا وجود لمزنة ركامية السحاب الأسود

METAR: OESK 240300Z 01003KT CAVOK 06/M12 Q1024 NOSIG

زمن: 06:35 (03:35 UTC)

توقعات

تاريخ ووقت الإصدار 4ساعات و 35 دقيقة قبل الساعة 23:00UTC
التوقعات صالحة من24 الساعة 00 UTC إلى 25 الساعة 06 UTC
ريح 6 عقدة من الشمال الشرقي تتزايد حتى 16 عقدة
الرؤية: 7000 متر
سماء صافية
مؤقت
من 24 الساعة 06 UTC إلى 24 الساعة 18 UTC
الرؤية: 3500 متر

TAF: OESK 232300Z 2400/2506 05006G16KT 7000 SKC TEMPO 2406/2418 3500 DU/BLDU

أرصاد الطقس والتوقعات من أكثر من 4000 مطار (تقارير الطقس للمطار METAR والتنبؤ بالطقس بالمطارTAF).

المحطات المتاحة هي النقط الصفراء والحمراء على الخريطة.

حرك المؤشر فوق النقطة لمعرفة اسم المحطة.

ثم انقر لمعرفة أرصاد وتوقعات الطقس.

لتغيير الخارطة: اضغط على الأزرار الخضراء مع رمز الصليب الأسود للتكبير. على الزر الأخضر مع شرطة للتصغير، أو على الأسهم الخضراء للخرائط المجاورة.


METAR-TAF: